sensor_id;sensor_type;location;lat;lon;timestamp;temperature;humidity
11536;DHT22;5824;49.336;8.652;2022-10-16T00:00:30;17.00;99.90
11536;DHT22;5824;49.336;8.652;2022-10-16T00:02:56;17.10;99.90
11536;DHT22;5824;49.336;8.652;2022-10-16T00:05:21;17.10;99.90
11536;DHT22;5824;49.336;8.652;2022-10-16T00:07:47;17.20;99.90
11536;DHT22;5824;49.336;8.652;2022-10-16T00:10:12;17.10;99.90
11536;DHT22;5824;49.336;8.652;2022-10-16T00:12:38;17.10;99.90
11536;DHT22;5824;49.336;8.652;2022-10-16T00:15:04;17.00;99.90
11536;DHT22;5824;49.336;8.652;2022-10-16T00:17:31;17.00;99.90
11536;DHT22;5824;49.336;8.652;2022-10-16T00:19:57;17.00;99.90
11536;DHT22;5824;49.336;8.652;2022-10-16T00:22:22;17.00;99.90
11536;DHT22;5824;49.336;8.652;2022-10-16T00:24:48;17.00;99.90
11536;DHT22;5824;49.336;8.652;2022-10-16T00:27:13;17.10;99.90
11536;DHT22;5824;49.336;8.652;2022-10-16T00:29:39;17.00;99.90
11536;DHT22;5824;49.336;8.652;2022-10-16T00:32:04;16.90;99.90
11536;DHT22;5824;49.336;8.652;2022-10-16T00:34:30;16.90;99.90
11536;DHT22;5824;49.336;8.652;2022-10-16T00:36:56;16.90;99.90
11536;DHT22;5824;49.336;8.652;2022-10-16T00:39:21;16.90;99.90
11536;DHT22;5824;49.336;8.652;2022-10-16T00:41:47;17.00;99.90
11536;DHT22;5824;49.336;8.652;2022-10-16T00:47:12;17.00;99.90
11536;DHT22;5824;49.336;8.652;2022-10-16T00:49:39;17.00;99.90
11536;DHT22;5824;49.336;8.652;2022-10-16T00:52:05;17.10;99.90
11536;DHT22;5824;49.336;8.652;2022-10-16T00:54:32;17.10;99.90
11536;DHT22;5824;49.336;8.652;2022-10-16T00:57:01;17.10;99.90
11536;DHT22;5824;49.336;8.652;2022-10-16T01:02:00;17.20;99.90
11536;DHT22;5824;49.336;8.652;2022-10-16T01:04:26;17.20;99.90
11536;DHT22;5824;49.336;8.652;2022-10-16T01:12:22;17.30;99.90
11536;DHT22;5824;49.336;8.652;2022-10-16T01:14:58;17.20;99.90
11536;DHT22;5824;49.336;8.652;2022-10-16T01:17:41;17.20;99.90
11536;DHT22;5824;49.336;8.652;2022-10-16T01:20:14;17.20;99.90
11536;DHT22;5824;49.336;8.652;2022-10-16T01:22:51;17.20;99.90
11536;DHT22;5824;49.336;8.652;2022-10-16T01:25:57;17.20;99.90
11536;DHT22;5824;49.336;8.652;2022-10-16T01:28:30;17.20;99.90
11536;DHT22;5824;49.336;8.652;2022-10-16T01:31:00;17.20;99.90
11536;DHT22;5824;49.336;8.652;2022-10-16T01:33:36;17.20;99.90
11536;DHT22;5824;49.336;8.652;2022-10-16T01:36:10;17.10;99.90
11536;DHT22;5824;49.336;8.652;2022-10-16T01:38:39;17.10;99.90
11536;DHT22;5824;49.336;8.652;2022-10-16T01:41:17;17.10;99.90
11536;DHT22;5824;49.336;8.652;2022-10-16T01:44:06;17.10;99.90
11536;DHT22;5824;49.336;8.652;2022-10-16T01:46:36;17.10;99.90
11536;DHT22;5824;49.336;8.652;2022-10-16T01:49:03;17.10;99.90
11536;DHT22;5824;49.336;8.652;2022-10-16T01:51:30;17.10;99.90
11536;DHT22;5824;49.336;8.652;2022-10-16T01:53:58;17.10;99.90
11536;DHT22;5824;49.336;8.652;2022-10-16T01:56:25;17.10;99.90
11536;DHT22;5824;49.336;8.652;2022-10-16T01:59:01;18.90;99.90
11536;DHT22;5824;49.336;8.652;2022-10-16T02:01:31;17.20;99.90
11536;DHT22;5824;49.336;8.652;2022-10-16T02:04:04;17.30;99.90
11536;DHT22;5824;49.336;8.652;2022-10-16T02:06:32;17.40;99.90
11536;DHT22;5824;49.336;8.652;2022-10-16T02:08:59;17.30;99.90
11536;DHT22;5824;49.336;8.652;2022-10-16T02:11:24;17.40;99.90
11536;DHT22;5824;49.336;8.652;2022-10-16T02:13:58;17.40;99.90
11536;DHT22;5824;49.336;8.652;2022-10-16T02:16:52;17.40;99.90
11536;DHT22;5824;49.336;8.652;2022-10-16T02:19:18;17.40;99.90
11536;DHT22;5824;49.336;8.652;2022-10-16T02:21:54;17.30;99.90
11536;DHT22;5824;49.336;8.652;2022-10-16T02:24:32;17.30;99.90
11536;DHT22;5824;49.336;8.652;2022-10-16T02:27:23;17.30;99.90
11536;DHT22;5824;49.336;8.652;2022-10-16T02:29:55;17.20;99.90
11536;DHT22;5824;49.336;8.652;2022-10-16T02:32:27;17.30;99.90
11536;DHT22;5824;49.336;8.652;2022-10-16T02:34:56;17.50;99.90
11536;DHT22;5824;49.336;8.652;2022-10-16T02:37:23;17.30;99.90
11536;DHT22;5824;49.336;8.652;2022-10-16T02:39:50;17.20;99.90
11536;DHT22;5824;49.336;8.652;2022-10-16T02:42:18;17.20;99.90
11536;DHT22;5824;49.336;8.652;2022-10-16T02:44:44;17.10;99.90
11536;DHT22;5824;49.336;8.652;2022-10-16T02:47:09;17.10;99.90
11536;DHT22;5824;49.336;8.652;2022-10-16T02:49:35;17.00;99.90
11536;DHT22;5824;49.336;8.652;2022-10-16T02:52:00;17.30;99.90
11536;DHT22;5824;49.336;8.652;2022-10-16T02:54:26;17.00;99.90
11536;DHT22;5824;49.336;8.652;2022-10-16T02:56:51;16.90;99.90
11536;DHT22;5824;49.336;8.652;2022-10-16T02:59:17;17.00;99.90
11536;DHT22;5824;49.336;8.652;2022-10-16T03:01:43;17.00;99.90
11536;DHT22;5824;49.336;8.652;2022-10-16T03:04:08;17.00;99.90
11536;DHT22;5824;49.336;8.652;2022-10-16T03:06:34;17.00;99.90
11536;DHT22;5824;49.336;8.652;2022-10-16T03:09:00;17.00;99.90
11536;DHT22;5824;49.336;8.652;2022-10-16T03:11:25;17.10;99.90
11536;DHT22;5824;49.336;8.652;2022-10-16T03:13:52;17.10;99.60
11536;DHT22;5824;49.336;8.652;2022-10-16T03:16:17;17.20;97.30
11536;DHT22;5824;49.336;8.652;2022-10-16T03:18:43;17.20;96.40
11536;DHT22;5824;49.336;8.652;2022-10-16T03:21:08;17.20;95.70
11536;DHT22;5824;49.336;8.652;2022-10-16T03:23:34;17.20;95.60
11536;DHT22;5824;49.336;8.652;2022-10-16T03:25:59;17.20;95.60
11536;DHT22;5824;49.336;8.652;2022-10-16T03:28:25;17.20;94.90
11536;DHT22;5824;49.336;8.652;2022-10-16T03:30:50;17.20;97.20
11536;DHT22;5824;49.336;8.652;2022-10-16T03:33:16;17.20;94.50
11536;DHT22;5824;49.336;8.652;2022-10-16T03:35:41;18.00;97.10
11536;DHT22;5824;49.336;8.652;2022-10-16T03:38:07;17.20;98.00
11536;DHT22;5824;49.336;8.652;2022-10-16T03:40:32;17.20;95.50
11536;DHT22;5824;49.336;8.652;2022-10-16T03:42:58;17.20;95.20
11536;DHT22;5824;49.336;8.652;2022-10-16T03:45:24;17.30;95.40
11536;DHT22;5824;49.336;8.652;2022-10-16T03:47:51;17.10;97.60
11536;DHT22;5824;49.336;8.652;2022-10-16T03:50:16;17.10;97.30
11536;DHT22;5824;49.336;8.652;2022-10-16T03:52:42;17.10;96.20
11536;DHT22;5824;49.336;8.652;2022-10-16T03:55:08;17.40;95.40
11536;DHT22;5824;49.336;8.652;2022-10-16T03:57:33;17.20;94.50
11536;DHT22;5824;49.336;8.652;2022-10-16T03:59:59;17.20;91.90
11536;DHT22;5824;49.336;8.652;2022-10-16T04:02:25;17.20;90.70
11536;DHT22;5824;49.336;8.652;2022-10-16T04:04:50;17.30;89.50
11536;DHT22;5824;49.336;8.652;2022-10-16T04:07:16;17.30;90.00
11536;DHT22;5824;49.336;8.652;2022-10-16T04:09:41;17.40;90.10
11536;DHT22;5824;49.336;8.652;2022-10-16T04:12:07;17.40;92.30
11536;DHT22;5824;49.336;8.652;2022-10-16T04:14:32;17.40;88.20
11536;DHT22;5824;49.336;8.652;2022-10-16T04:16:58;17.30;90.60
11536;DHT22;5824;49.336;8.652;2022-10-16T04:19:24;17.30;91.10
11536;DHT22;5824;49.336;8.652;2022-10-16T04:21:49;17.30;92.70
11536;DHT22;5824;49.336;8.652;2022-10-16T04:24:15;17.30;92.80
11536;DHT22;5824;49.336;8.652;2022-10-16T04:26:40;17.30;93.20
11536;DHT22;5824;49.336;8.652;2022-10-16T04:29:06;17.20;94.90
11536;DHT22;5824;49.336;8.652;2022-10-16T04:31:32;17.20;95.90
11536;DHT22;5824;49.336;8.652;2022-10-16T04:33:58;17.20;97.70
11536;DHT22;5824;49.336;8.652;2022-10-16T04:36:23;17.20;96.60
11536;DHT22;5824;49.336;8.652;2022-10-16T04:38:49;17.20;96.10
11536;DHT22;5824;49.336;8.652;2022-10-16T04:41:14;17.10;94.80
11536;DHT22;5824;49.336;8.652;2022-10-16T04:43:40;17.10;96.30
11536;DHT22;5824;49.336;8.652;2022-10-16T04:46:05;17.10;96.10
11536;DHT22;5824;49.336;8.652;2022-10-16T04:48:31;17.10;98.70
11536;DHT22;5824;49.336;8.652;2022-10-16T04:50:57;17.00;97.90
11536;DHT22;5824;49.336;8.652;2022-10-16T04:53:22;17.00;98.30
11536;DHT22;5824;49.336;8.652;2022-10-16T04:55:49;17.10;96.90
11536;DHT22;5824;49.336;8.652;2022-10-16T04:58:14;17.10;97.60
11536;DHT22;5824;49.336;8.652;2022-10-16T05:00:40;17.00;96.20
11536;DHT22;5824;49.336;8.652;2022-10-16T05:03:05;17.10;95.00
11536;DHT22;5824;49.336;8.652;2022-10-16T05:05:34;17.00;95.60
11536;DHT22;5824;49.336;8.652;2022-10-16T05:07:59;17.20;97.20
11536;DHT22;5824;49.336;8.652;2022-10-16T05:10:25;17.00;95.90
11536;DHT22;5824;49.336;8.652;2022-10-16T05:12:50;17.00;97.10
11536;DHT22;5824;49.336;8.652;2022-10-16T05:15:17;17.40;98.70
11536;DHT22;5824;49.336;8.652;2022-10-16T05:17:42;17.00;98.60
11536;DHT22;5824;49.336;8.652;2022-10-16T05:20:08;17.00;97.60
11536;DHT22;5824;49.336;8.652;2022-10-16T05:22:33;17.00;97.90
11536;DHT22;5824;49.336;8.652;2022-10-16T05:24:59;17.00;96.00
11536;DHT22;5824;49.336;8.652;2022-10-16T05:27:25;17.10;94.50
11536;DHT22;5824;49.336;8.652;2022-10-16T05:29:50;17.10;95.70
11536;DHT22;5824;49.336;8.652;2022-10-16T05:32:16;17.10;95.70
11536;DHT22;5824;49.336;8.652;2022-10-16T05:34:43;17.00;95.90
11536;DHT22;5824;49.336;8.652;2022-10-16T05:37:08;17.00;96.20
11536;DHT22;5824;49.336;8.652;2022-10-16T05:39:34;17.00;94.40
11536;DHT22;5824;49.336;8.652;2022-10-16T05:41:59;16.90;95.50
11536;DHT22;5824;49.336;8.652;2022-10-16T05:44:25;16.90;96.40
11536;DHT22;5824;49.336;8.652;2022-10-16T05:46:51;17.00;94.90
11536;DHT22;5824;49.336;8.652;2022-10-16T05:49:16;17.00;93.40
11536;DHT22;5824;49.336;8.652;2022-10-16T05:51:42;17.20;93.20
11536;DHT22;5824;49.336;8.652;2022-10-16T05:54:08;17.20;90.60
11536;DHT22;5824;49.336;8.652;2022-10-16T05:56:34;17.20;88.40
11536;DHT22;5824;49.336;8.652;2022-10-16T05:58:59;17.20;88.30
11536;DHT22;5824;49.336;8.652;2022-10-16T06:01:25;17.20;84.20
11536;DHT22;5824;49.336;8.652;2022-10-16T06:03:51;17.30;83.20
11536;DHT22;5824;49.336;8.652;2022-10-16T06:06:19;17.30;85.00
11536;DHT22;5824;49.336;8.652;2022-10-16T06:08:46;17.40;82.70
11536;DHT22;5824;49.336;8.652;2022-10-16T06:11:17;17.40;79.10
11536;DHT22;5824;49.336;8.652;2022-10-16T06:13:43;17.30;77.70
11536;DHT22;5824;49.336;8.652;2022-10-16T06:16:11;17.30;76.00
11536;DHT22;5824;49.336;8.652;2022-10-16T06:18:38;17.40;75.20
11536;DHT22;5824;49.336;8.652;2022-10-16T06:21:08;17.30;85.50
11536;DHT22;5824;49.336;8.652;2022-10-16T06:23:35;17.10;92.90
11536;DHT22;5824;49.336;8.652;2022-10-16T06:26:12;17.00;96.90
11536;DHT22;5824;49.336;8.652;2022-10-16T06:28:38;16.90;99.20
11536;DHT22;5824;49.336;8.652;2022-10-16T06:31:05;16.90;99.90
11536;DHT22;5824;49.336;8.652;2022-10-16T06:33:31;16.80;99.90
11536;DHT22;5824;49.336;8.652;2022-10-16T06:36:05;16.80;99.90
11536;DHT22;5824;49.336;8.652;2022-10-16T06:38:32;16.70;99.90
11536;DHT22;5824;49.336;8.652;2022-10-16T06:40:58;16.70;99.90
11536;DHT22;5824;49.336;8.652;2022-10-16T06:43:24;16.70;99.90
11536;DHT22;5824;49.336;8.652;2022-10-16T06:45:53;16.70;99.90
11536;DHT22;5824;49.336;8.652;2022-10-16T06:48:20;16.70;99.90
11536;DHT22;5824;49.336;8.652;2022-10-16T06:53:28;16.80;99.90
11536;DHT22;5824;49.336;8.652;2022-10-16T06:55:54;16.70;99.90
11536;DHT22;5824;49.336;8.652;2022-10-16T06:58:19;16.80;99.90
11536;DHT22;5824;49.336;8.652;2022-10-16T07:00:45;16.90;99.90
11536;DHT22;5824;49.336;8.652;2022-10-16T07:03:11;16.90;99.90
11536;DHT22;5824;49.336;8.652;2022-10-16T07:05:40;17.00;99.90
11536;DHT22;5824;49.336;8.652;2022-10-16T07:08:06;17.10;99.90
11536;DHT22;5824;49.336;8.652;2022-10-16T07:10:32;17.10;99.90
11536;DHT22;5824;49.336;8.652;2022-10-16T07:12:58;17.20;99.90
11536;DHT22;5824;49.336;8.652;2022-10-16T07:15:25;17.90;99.90
11536;DHT22;5824;49.336;8.652;2022-10-16T07:17:50;17.40;99.90
11536;DHT22;5824;49.336;8.652;2022-10-16T07:20:16;17.50;99.90
11536;DHT22;5824;49.336;8.652;2022-10-16T07:22:41;17.50;99.90
11536;DHT22;5824;49.336;8.652;2022-10-16T07:25:07;17.60;99.90
11536;DHT22;5824;49.336;8.652;2022-10-16T07:27:33;17.70;99.90
11536;DHT22;5824;49.336;8.652;2022-10-16T07:29:59;17.80;99.90
11536;DHT22;5824;49.336;8.652;2022-10-16T07:32:25;17.90;99.90
11536;DHT22;5824;49.336;8.652;2022-10-16T07:34:51;18.10;99.90
11536;DHT22;5824;49.336;8.652;2022-10-16T07:37:17;18.00;99.90
11536;DHT22;5824;49.336;8.652;2022-10-16T07:39:42;18.10;99.90
11536;DHT22;5824;49.336;8.652;2022-10-16T07:42:08;18.10;99.90
11536;DHT22;5824;49.336;8.652;2022-10-16T07:44:34;18.10;99.90
11536;DHT22;5824;49.336;8.652;2022-10-16T07:46:59;18.20;99.90
11536;DHT22;5824;49.336;8.652;2022-10-16T07:49:25;18.40;99.90
11536;DHT22;5824;49.336;8.652;2022-10-16T07:51:51;18.50;94.20
11536;DHT22;5824;49.336;8.652;2022-10-16T07:54:16;18.60;89.50
11536;DHT22;5824;49.336;8.652;2022-10-16T07:56:42;18.70;90.50
11536;DHT22;5824;49.336;8.652;2022-10-16T07:59:07;18.80;86.30
11536;DHT22;5824;49.336;8.652;2022-10-16T08:01:33;18.90;84.50
11536;DHT22;5824;49.336;8.652;2022-10-16T08:03:58;18.90;89.10
11536;DHT22;5824;49.336;8.652;2022-10-16T08:06:24;18.90;75.80
11536;DHT22;5824;49.336;8.652;2022-10-16T08:08:50;18.80;69.00
11536;DHT22;5824;49.336;8.652;2022-10-16T08:11:15;18.90;79.10
11536;DHT22;5824;49.336;8.652;2022-10-16T08:13:41;19.00;58.20
11536;DHT22;5824;49.336;8.652;2022-10-16T08:16:07;19.20;70.80
11536;DHT22;5824;49.336;8.652;2022-10-16T08:18:38;19.30;70.70
11536;DHT22;5824;49.336;8.652;2022-10-16T08:21:05;19.40;55.80
11536;DHT22;5824;49.336;8.652;2022-10-16T08:23:32;19.30;59.10
11536;DHT22;5824;49.336;8.652;2022-10-16T08:26:03;19.20;62.20
11536;DHT22;5824;49.336;8.652;2022-10-16T08:28:29;19.20;58.50
11536;DHT22;5824;49.336;8.652;2022-10-16T08:30:55;19.10;52.90
11536;DHT22;5824;49.336;8.652;2022-10-16T08:33:22;19.00;56.30
11536;DHT22;5824;49.336;8.652;2022-10-16T08:35:54;18.90;70.40
11536;DHT22;5824;49.336;8.652;2022-10-16T08:38:20;19.00;69.60
11536;DHT22;5824;49.336;8.652;2022-10-16T08:40:46;19.00;67.20
11536;DHT22;5824;49.336;8.652;2022-10-16T08:49:16;19.30;65.90
11536;DHT22;5824;49.336;8.652;2022-10-16T08:51:42;19.40;46.00
11536;DHT22;5824;49.336;8.652;2022-10-16T08:56:55;19.50;47.50
11536;DHT22;5824;49.336;8.652;2022-10-16T08:59:21;19.70;52.20
11536;DHT22;5824;49.336;8.652;2022-10-16T09:01:50;19.90;46.40
11536;DHT22;5824;49.336;8.652;2022-10-16T09:04:42;20.20;46.60
11536;DHT22;5824;49.336;8.652;2022-10-16T09:10:11;21.30;23.70
11536;DHT22;5824;49.336;8.652;2022-10-16T09:12:50;22.10;32.90
11536;DHT22;5824;49.336;8.652;2022-10-16T09:15:39;23.50;9.50
11536;DHT22;5824;49.336;8.652;2022-10-16T09:18:25;24.80;1.00
11536;DHT22;5824;49.336;8.652;2022-10-16T09:21:25;24.80;1.00
11536;DHT22;5824;49.336;8.652;2022-10-16T09:23:52;24.30;1.00
11536;DHT22;5824;49.336;8.652;2022-10-16T09:26:19;23.90;1.00
11536;DHT22;5824;49.336;8.652;2022-10-16T09:28:47;23.70;1.00
11536;DHT22;5824;49.336;8.652;2022-10-16T09:31:16;23.70;1.00
11536;DHT22;5824;49.336;8.652;2022-10-16T09:33:43;23.70;1.00
11536;DHT22;5824;49.336;8.652;2022-10-16T09:36:11;23.80;1.00
11536;DHT22;5824;49.336;8.652;2022-10-16T09:38:38;24.00;1.00
11536;DHT22;5824;49.336;8.652;2022-10-16T09:41:19;23.90;1.00
11536;DHT22;5824;49.336;8.652;2022-10-16T09:43:51;23.80;1.00
11536;DHT22;5824;49.336;8.652;2022-10-16T09:46:28;23.60;1.00
11536;DHT22;5824;49.336;8.652;2022-10-16T09:48:56;23.70;1.00
11536;DHT22;5824;49.336;8.652;2022-10-16T09:51:26;23.80;1.00
11536;DHT22;5824;49.336;8.652;2022-10-16T09:56:41;23.80;1.00
11536;DHT22;5824;49.336;8.652;2022-10-16T10:01:46;23.50;1.00
11536;DHT22;5824;49.336;8.652;2022-10-16T10:04:12;23.60;1.00
11536;DHT22;5824;49.336;8.652;2022-10-16T10:06:49;23.70;1.00
11536;DHT22;5824;49.336;8.652;2022-10-16T10:09:20;24.40;1.00
11536;DHT22;5824;49.336;8.652;2022-10-16T10:11:47;24.90;1.00
11536;DHT22;5824;49.336;8.652;2022-10-16T10:25:18;29.90;1.00
11536;DHT22;5824;49.336;8.652;2022-10-16T10:30:46;31.40;1.00
11536;DHT22;5824;49.336;8.652;2022-10-16T10:36:35;28.60;1.00
11536;DHT22;5824;49.336;8.652;2022-10-16T10:42:06;30.50;1.00
11536;DHT22;5824;49.336;8.652;2022-10-16T10:49:48;34.90;1.00
11536;DHT22;5824;49.336;8.652;2022-10-16T10:52:29;35.10;1.00
11536;DHT22;5824;49.336;8.652;2022-10-16T10:55:10;36.00;1.00
11536;DHT22;5824;49.336;8.652;2022-10-16T10:58:11;36.20;1.00
11536;DHT22;5824;49.336;8.652;2022-10-16T11:06:08;37.00;1.00
11536;DHT22;5824;49.336;8.652;2022-10-16T11:08:39;38.70;1.00
11536;DHT22;5824;49.336;8.652;2022-10-16T11:14:10;38.20;1.00
11536;DHT22;5824;49.336;8.652;2022-10-16T11:19:46;37.30;1.00
11536;DHT22;5824;49.336;8.652;2022-10-16T11:22:36;37.10;1.00
11536;DHT22;5824;49.336;8.652;2022-10-16T11:30:25;36.90;1.00
11536;DHT22;5824;49.336;8.652;2022-10-16T11:36:04;38.80;1.00
11536;DHT22;5824;49.336;8.652;2022-10-16T11:41:36;40.50;1.00
11536;DHT22;5824;49.336;8.652;2022-10-16T11:49:47;32.00;1.00
11536;DHT22;5824;49.336;8.652;2022-10-16T11:52:48;32.00;1.00
11536;DHT22;5824;49.336;8.652;2022-10-16T11:55:27;31.20;1.00
11536;DHT22;5824;49.336;8.652;2022-10-16T12:08:44;30.20;1.00
11536;DHT22;5824;49.336;8.652;2022-10-16T12:14:03;31.50;1.00
11536;DHT22;5824;49.336;8.652;2022-10-16T12:16:28;30.90;1.00
11536;DHT22;5824;49.336;8.652;2022-10-16T12:19:15;30.30;1.00
11536;DHT22;5824;49.336;8.652;2022-10-16T12:21:42;30.80;1.00
11536;DHT22;5824;49.336;8.652;2022-10-16T12:27:29;28.40;1.00
11536;DHT22;5824;49.336;8.652;2022-10-16T12:29:58;27.50;1.00
11536;DHT22;5824;49.336;8.652;2022-10-16T12:32:35;27.20;1.00
11536;DHT22;5824;49.336;8.652;2022-10-16T12:35:03;27.10;1.00
11536;DHT22;5824;49.336;8.652;2022-10-16T12:37:40;26.70;1.00
11536;DHT22;5824;49.336;8.652;2022-10-16T12:40:15;27.10;1.00
11536;DHT22;5824;49.336;8.652;2022-10-16T12:42:41;28.00;1.00
11536;DHT22;5824;49.336;8.652;2022-10-16T12:45:33;28.40;1.00
11536;DHT22;5824;49.336;8.652;2022-10-16T12:48:01;29.90;1.00
11536;DHT22;5824;49.336;8.652;2022-10-16T12:50:35;31.10;1.00
11536;DHT22;5824;49.336;8.652;2022-10-16T12:53:02;29.60;1.00
11536;DHT22;5824;49.336;8.652;2022-10-16T12:55:34;29.10;1.00
11536;DHT22;5824;49.336;8.652;2022-10-16T13:07:13;27.00;1.00
11536;DHT22;5824;49.336;8.652;2022-10-16T13:18:10;25.90;1.00
11536;DHT22;5824;49.336;8.652;2022-10-16T13:21:00;25.70;1.00
11536;DHT22;5824;49.336;8.652;2022-10-16T13:23:38;25.40;1.00
11536;DHT22;5824;49.336;8.652;2022-10-16T13:26:21;24.80;1.00
11536;DHT22;5824;49.336;8.652;2022-10-16T13:28:49;24.50;1.00
11536;DHT22;5824;49.336;8.652;2022-10-16T13:31:18;24.60;1.00
11536;DHT22;5824;49.336;8.652;2022-10-16T13:33:50;24.20;1.00
11536;DHT22;5824;49.336;8.652;2022-10-16T13:36:44;23.90;1.00
11536;DHT22;5824;49.336;8.652;2022-10-16T13:39:14;23.60;1.00
11536;DHT22;5824;49.336;8.652;2022-10-16T13:41:40;23.60;1.00
11536;DHT22;5824;49.336;8.652;2022-10-16T13:44:14;23.50;1.00
11536;DHT22;5824;49.336;8.652;2022-10-16T13:46:40;23.40;1.00
11536;DHT22;5824;49.336;8.652;2022-10-16T13:49:15;23.30;1.00
11536;DHT22;5824;49.336;8.652;2022-10-16T13:51:41;23.20;1.00
11536;DHT22;5824;49.336;8.652;2022-10-16T13:54:11;23.20;1.00
11536;DHT22;5824;49.336;8.652;2022-10-16T13:56:39;23.10;1.00
11536;DHT22;5824;49.336;8.652;2022-10-16T13:59:22;23.10;1.00
11536;DHT22;5824;49.336;8.652;2022-10-16T14:01:47;23.10;1.00
11536;DHT22;5824;49.336;8.652;2022-10-16T14:04:14;23.00;1.00
11536;DHT22;5824;49.336;8.652;2022-10-16T14:06:45;22.90;1.00
11536;DHT22;5824;49.336;8.652;2022-10-16T14:09:17;22.80;1.00
11536;DHT22;5824;49.336;8.652;2022-10-16T14:11:50;22.60;1.00
11536;DHT22;5824;49.336;8.652;2022-10-16T14:14:17;22.50;1.00
11536;DHT22;5824;49.336;8.652;2022-10-16T14:16:43;22.50;1.00
11536;DHT22;5824;49.336;8.652;2022-10-16T14:19:22;22.40;1.00
11536;DHT22;5824;49.336;8.652;2022-10-16T14:21:50;22.30;1.00
11536;DHT22;5824;49.336;8.652;2022-10-16T14:24:35;22.20;1.00
11536;DHT22;5824;49.336;8.652;2022-10-16T14:27:02;22.20;1.00
11536;DHT22;5824;49.336;8.652;2022-10-16T14:29:29;22.10;1.00
11536;DHT22;5824;49.336;8.652;2022-10-16T14:32:24;22.30;1.00
11536;DHT22;5824;49.336;8.652;2022-10-16T14:34:53;22.20;1.00
11536;DHT22;5824;49.336;8.652;2022-10-16T14:37:23;22.20;1.00
11536;DHT22;5824;49.336;8.652;2022-10-16T14:39:50;22.10;1.00
11536;DHT22;5824;49.336;8.652;2022-10-16T14:42:23;22.20;1.00
11536;DHT22;5824;49.336;8.652;2022-10-16T14:44:51;22.10;1.00
11536;DHT22;5824;49.336;8.652;2022-10-16T14:47:24;21.90;1.00
11536;DHT22;5824;49.336;8.652;2022-10-16T14:49:52;21.80;1.00
11536;DHT22;5824;49.336;8.652;2022-10-16T14:52:18;21.80;1.00
11536;DHT22;5824;49.336;8.652;2022-10-16T14:54:48;21.80;1.00
11536;DHT22;5824;49.336;8.652;2022-10-16T14:57:19;22.50;1.00
11536;DHT22;5824;49.336;8.652;2022-10-16T14:59:45;21.90;1.00
11536;DHT22;5824;49.336;8.652;2022-10-16T15:02:27;22.00;1.00
11536;DHT22;5824;49.336;8.652;2022-10-16T15:04:53;22.30;1.00
11536;DHT22;5824;49.336;8.652;2022-10-16T15:07:19;22.60;1.00
11536;DHT22;5824;49.336;8.652;2022-10-16T15:09:44;22.90;1.00
11536;DHT22;5824;49.336;8.652;2022-10-16T15:12:10;23.10;1.00
11536;DHT22;5824;49.336;8.652;2022-10-16T15:14:35;23.20;1.00
11536;DHT22;5824;49.336;8.652;2022-10-16T15:17:02;23.20;1.00
11536;DHT22;5824;49.336;8.652;2022-10-16T15:19:27;23.10;1.00
11536;DHT22;5824;49.336;8.652;2022-10-16T15:21:53;23.00;1.00
11536;DHT22;5824;49.336;8.652;2022-10-16T15:24:18;22.80;1.00
11536;DHT22;5824;49.336;8.652;2022-10-16T15:26:44;22.60;1.00
11536;DHT22;5824;49.336;8.652;2022-10-16T15:29:11;22.50;1.00
11536;DHT22;5824;49.336;8.652;2022-10-16T15:31:37;22.60;1.00
11536;DHT22;5824;49.336;8.652;2022-10-16T15:34:03;22.30;1.00
11536;DHT22;5824;49.336;8.652;2022-10-16T15:36:34;22.20;1.00
11536;DHT22;5824;49.336;8.652;2022-10-16T15:39:03;22.10;1.00
11536;DHT22;5824;49.336;8.652;2022-10-16T15:41:28;22.00;1.00
11536;DHT22;5824;49.336;8.652;2022-10-16T15:43:54;21.90;1.00
11536;DHT22;5824;49.336;8.652;2022-10-16T15:46:22;21.90;1.00
11536;DHT22;5824;49.336;8.652;2022-10-16T15:48:49;21.80;1.00
11536;DHT22;5824;49.336;8.652;2022-10-16T15:51:16;21.80;1.00
11536;DHT22;5824;49.336;8.652;2022-10-16T15:53:42;21.70;1.00
11536;DHT22;5824;49.336;8.652;2022-10-16T15:56:09;21.80;1.00
11536;DHT22;5824;49.336;8.652;2022-10-16T15:58:35;23.50;1.00
11536;DHT22;5824;49.336;8.652;2022-10-16T16:01:01;21.60;1.00
11536;DHT22;5824;49.336;8.652;2022-10-16T16:03:28;21.60;1.00
11536;DHT22;5824;49.336;8.652;2022-10-16T16:05:54;21.50;1.00
11536;DHT22;5824;49.336;8.652;2022-10-16T16:08:19;21.50;1.00
11536;DHT22;5824;49.336;8.652;2022-10-16T16:10:45;21.50;1.00
11536;DHT22;5824;49.336;8.652;2022-10-16T16:13:11;21.40;1.00
11536;DHT22;5824;49.336;8.652;2022-10-16T16:15:40;21.30;1.00
11536;DHT22;5824;49.336;8.652;2022-10-16T16:18:06;21.20;1.00
11536;DHT22;5824;49.336;8.652;2022-10-16T16:20:31;21.10;1.00
11536;DHT22;5824;49.336;8.652;2022-10-16T16:22:57;20.90;1.00
11536;DHT22;5824;49.336;8.652;2022-10-16T16:25:23;20.80;1.00
11536;DHT22;5824;49.336;8.652;2022-10-16T16:27:48;20.60;1.00
11536;DHT22;5824;49.336;8.652;2022-10-16T16:30:14;20.40;1.00
11536;DHT22;5824;49.336;8.652;2022-10-16T16:32:40;20.30;1.00
11536;DHT22;5824;49.336;8.652;2022-10-16T16:35:06;20.20;1.00
11536;DHT22;5824;49.336;8.652;2022-10-16T16:37:31;20.10;1.00
11536;DHT22;5824;49.336;8.652;2022-10-16T16:39:57;20.00;1.00
11536;DHT22;5824;49.336;8.652;2022-10-16T16:42:26;19.90;1.00
11536;DHT22;5824;49.336;8.652;2022-10-16T16:44:51;19.90;1.00
11536;DHT22;5824;49.336;8.652;2022-10-16T16:47:17;19.70;1.00
11536;DHT22;5824;49.336;8.652;2022-10-16T16:49:43;19.70;1.00
11536;DHT22;5824;49.336;8.652;2022-10-16T16:52:08;19.60;1.00
11536;DHT22;5824;49.336;8.652;2022-10-16T16:54:34;19.50;1.00
11536;DHT22;5824;49.336;8.652;2022-10-16T16:57:00;19.40;1.00
11536;DHT22;5824;49.336;8.652;2022-10-16T16:59:26;19.40;1.00
11536;DHT22;5824;49.336;8.652;2022-10-16T17:01:51;19.80;1.00
11536;DHT22;5824;49.336;8.652;2022-10-16T17:04:17;19.30;1.00
11536;DHT22;5824;49.336;8.652;2022-10-16T17:06:44;19.40;1.00
11536;DHT22;5824;49.336;8.652;2022-10-16T17:09:10;19.30;1.00
11536;DHT22;5824;49.336;8.652;2022-10-16T17:11:38;19.30;1.00
11536;DHT22;5824;49.336;8.652;2022-10-16T17:14:06;19.20;1.00
11536;DHT22;5824;49.336;8.652;2022-10-16T17:16:35;19.20;1.00
11536;DHT22;5824;49.336;8.652;2022-10-16T17:19:04;19.10;1.00
11536;DHT22;5824;49.336;8.652;2022-10-16T17:21:30;19.00;1.00
11536;DHT22;5824;49.336;8.652;2022-10-16T17:23:57;19.00;1.00
11536;DHT22;5824;49.336;8.652;2022-10-16T17:26:23;18.90;1.00
11536;DHT22;5824;49.336;8.652;2022-10-16T17:28:53;18.90;1.00
11536;DHT22;5824;49.336;8.652;2022-10-16T17:31:21;18.80;1.00
11536;DHT22;5824;49.336;8.652;2022-10-16T17:33:47;18.70;1.00
11536;DHT22;5824;49.336;8.652;2022-10-16T17:36:13;18.60;1.00
11536;DHT22;5824;49.336;8.652;2022-10-16T17:38:41;18.60;1.00
11536;DHT22;5824;49.336;8.652;2022-10-16T17:41:13;18.60;1.00
11536;DHT22;5824;49.336;8.652;2022-10-16T17:43:39;18.60;1.00
11536;DHT22;5824;49.336;8.652;2022-10-16T17:46:06;18.50;1.00
11536;DHT22;5824;49.336;8.652;2022-10-16T17:48:36;18.50;1.00
11536;DHT22;5824;49.336;8.652;2022-10-16T17:51:04;18.40;1.00
11536;DHT22;5824;49.336;8.652;2022-10-16T17:53:30;18.30;1.00
11536;DHT22;5824;49.336;8.652;2022-10-16T17:55:55;18.20;1.00
11536;DHT22;5824;49.336;8.652;2022-10-16T17:58:23;17.60;1.00
11536;DHT22;5824;49.336;8.652;2022-10-16T18:00:49;18.10;3.30